Time;durP1;ratioP1;P1;durP2;ratioP2;P2;SDS_P1;SDS_P2;PMS_P1;PMS_P2;Temp;Humidity;BMP_temperature;BMP_pressure;BME280_temperature;BME280_humidity;BME280_pressure;Samples;Min_cycle;Max_cycle;Signal;HPM_P1;HPM_P2
2021/04/22 00:01:14;;;;;;;0.20;0.10;;;12.00;99.90;;;;;;20467708;23;20298;-76
2021/04/22 00:11:18;;;;;;;1.40;0.80;;;11.80;99.90;;;;;;20455176;29;20883;-78
2021/04/22 00:21:21;;;;;;;0.20;0.10;;;11.60;99.90;;;;;;20454220;28;20221;-79
2021/04/22 00:31:25;;;;;;;0.20;0.20;;;11.40;99.90;;;;;;20454548;28;20618;-78
2021/04/22 00:41:27;;;;;;;0.20;0.20;;;11.30;99.90;;;;;;20529991;28;20239;-81
2021/04/22 00:51:31;;;;;;;0.30;0.17;;;11.20;99.90;;;;;;20533326;28;20211;-77
2021/04/22 01:01:33;;;;;;;0.53;0.53;;;11.20;99.90;;;;;;20523442;23;20240;-74
2021/04/22 01:11:37;;;;;;;0.20;0.10;;;11.10;99.90;;;;;;20451636;29;20209;-74
2021/04/22 01:21:40;;;;;;;1.50;0.50;;;11.10;99.90;;;;;;20448599;29;20355;-74
2021/04/22 01:31:43;;;;;;;0.20;0.10;;;10.80;99.90;;;;;;20462491;28;20204;-76
2021/04/22 01:41:47;;;;;;;0.33;0.30;;;10.60;99.90;;;;;;20547276;28;20235;-74
2021/04/22 01:51:49;;;;;;;0.20;0.10;;;10.70;99.90;;;;;;20545050;28;20215;-73
2021/04/22 02:01:52;;;;;;;1.40;0.30;;;10.80;99.90;;;;;;20525776;28;20701;-74
2021/04/22 02:11:55;;;;;;;0.20;0.10;;;10.60;99.90;;;;;;20544368;28;20557;-75
2021/04/22 02:21:58;;;;;;;0.40;0.40;;;10.60;99.90;;;;;;20525316;28;20220;-75
2021/04/22 02:32:01;;;;;;;0.20;0.20;;;10.60;99.90;;;;;;20536277;28;20281;-75
2021/04/22 02:42:06;;;;;;;0.20;0.10;;;10.60;99.90;;;;;;20541457;28;20254;-74
2021/04/22 02:52:14;;;;;;;0.20;0.10;;;10.70;99.90;;;;;;20539917;28;20195;-74
2021/04/22 03:02:18;;;;;;;0.20;0.20;;;10.60;99.90;;;;;;20540012;28;20224;-76
2021/04/22 03:12:20;;;;;;;0.20;0.10;;;10.70;99.90;;;;;;20540614;28;20246;-75
2021/04/22 03:22:24;;;;;;;0.30;0.30;;;10.60;99.90;;;;;;20537661;28;20231;-76
2021/04/22 03:32:27;;;;;;;0.50;0.50;;;10.50;99.90;;;;;;20533976;28;20199;-76
2021/04/22 03:42:31;;;;;;;0.27;0.27;;;10.60;99.90;;;;;;20459607;28;20714;-74
2021/04/22 04:03:28;;;;;;;0.20;0.10;;;10.60;99.90;;;;;;21959617;23;20239;-75
2021/04/22 04:13:31;;;;;;;0.20;0.10;;;10.50;99.90;;;;;;20614291;28;20198;-75
2021/04/22 04:23:35;;;;;;;2.63;1.20;;;10.60;99.90;;;;;;20630452;28;20569;-76
2021/04/22 04:33:37;;;;;;;0.80;0.50;;;10.70;99.90;;;;;;20613497;28;20199;-77
2021/04/22 04:43:41;;;;;;;0.20;0.10;;;11.00;99.90;;;;;;20612320;28;20792;-78
2021/04/22 04:53:47;;;;;;;0.20;0.20;;;11.20;99.90;;;;;;20610547;28;20183;-77
2021/04/22 05:03:51;;;;;;;0.50;0.47;;;11.30;99.90;;;;;;20610413;28;20227;-76
2021/04/22 05:13:53;;;;;;;0.20;0.10;;;11.20;99.90;;;;;;20610164;28;20772;-76
2021/04/22 05:23:57;;;;;;;0.50;0.50;;;11.20;99.90;;;;;;20606571;28;20642;-77
2021/04/22 05:34:00;;;;;;;0.20;0.10;;;11.20;99.90;;;;;;20608083;28;20207;-76
2021/04/22 05:44:04;;;;;;;0.30;0.30;;;11.40;99.90;;;;;;20608644;28;20560;-75
2021/04/22 05:54:08;;;;;;;0.30;0.30;;;11.70;99.90;;;;;;20606375;28;20654;-77
2021/04/22 06:04:11;;;;;;;0.37;0.37;;;11.80;99.90;;;;;;20610392;28;20794;-73
2021/04/22 06:14:14;;;;;;;1.27;1.13;;;11.90;99.90;;;;;;20609292;28;20191;-76
2021/04/22 06:24:17;;;;;;;0.30;0.30;;;12.30;99.90;;;;;;20625179;28;20227;-77
2021/04/22 06:34:20;;;;;;;0.23;0.23;;;13.10;99.90;;;;;;20635254;28;20283;-77
2021/04/22 06:44:30;;;;;;;1.07;0.90;;;13.60;99.90;;;;;;20622043;28;20826;-75
2021/04/22 06:54:35;;;;;;;0.60;0.33;;;14.50;99.90;;;;;;20631888;28;20207;-75
2021/04/22 07:04:39;;;;;;;0.70;0.70;;;14.60;99.90;;;;;;20616628;28;20437;-78
2021/04/22 07:14:41;;;;;;;0.40;0.30;;;14.70;99.90;;;;;;20615872;28;20200;-80
2021/04/22 07:24:45;;;;;;;0.27;0.23;;;14.50;99.90;;;;;;20616896;28;20227;-82
2021/04/22 07:34:48;;;;;;;1.13;0.70;;;15.10;99.90;;;;;;20614487;28;20243;-81
2021/04/22 07:44:52;;;;;;;1.20;0.67;;;15.00;99.90;;;;;;20614381;28;20251;-72
2021/04/22 07:54:56;;;;;;;0.20;0.10;;;14.90;99.90;;;;;;20612279;28;20199;-74
2021/04/22 08:04:59;;;;;;;0.20;0.20;;;15.20;99.90;;;;;;20613908;28;20515;-74
2021/04/22 08:15:03;;;;;;;0.30;0.30;;;15.50;99.90;;;;;;20613361;28;20201;-74
2021/04/22 08:25:11;;;;;;;0.20;0.10;;;15.40;99.90;;;;;;20595656;28;20740;-74
2021/04/22 08:35:16;;;;;;;4.70;0.53;;;15.80;99.90;;;;;;20603441;28;20191;-72
2021/04/22 08:45:20;;;;;;;0.40;0.40;;;15.70;99.90;;;;;;20610333;28;20656;-75
2021/04/22 08:55:39;;;;;;;0.23;0.23;;;16.30;99.90;;;;;;20609897;28;20302;-80
2021/04/22 09:06:12;;;;;;;0.93;0.43;;;16.60;99.90;;;;;;20609285;28;20265;-78
2021/04/22 09:16:17;;;;;;;1.27;0.90;;;16.40;99.90;;;;;;20614895;28;20629;-74
2021/04/22 09:26:43;;;;;;;0.20;0.07;;;17.60;99.90;;;;;;20611943;28;20712;-80
2021/04/22 09:36:52;;;;;;;0.20;0.10;;;17.90;99.90;;;;;;20615606;28;20294;-82
2021/04/22 09:47:08;;;;;;;0.73;0.50;;;18.50;99.90;;;;;;20612121;28;20235;-74
2021/04/22 09:57:22;;;;;;;1.73;0.50;;;18.80;99.90;;;;;;20629099;28;20202;-80
2021/04/22 10:07:28;;;;;;;0.20;0.10;;;18.40;99.90;;;;;;20626414;28;20235;-79
2021/04/22 10:17:31;;;;;;;0.20;0.10;;;18.40;99.90;;;;;;20627952;28;20374;-83
2021/04/22 10:27:47;;;;;;;0.50;0.40;;;18.50;99.90;;;;;;20628785;28;20504;-85
2021/04/22 10:37:53;;;;;;;0.30;0.30;;;19.00;99.90;;;;;;20609021;28;20202;-86
2021/04/22 10:48:02;;;;;;;0.20;0.20;;;19.50;99.90;;;;;;20625768;28;20487;-83
2021/04/22 10:58:17;;;;;;;1.07;0.97;;;19.20;99.90;;;;;;20622881;28;20316;-81
2021/04/22 11:08:49;;;;;;;0.93;0.37;;;19.20;99.90;;;;;;20602687;28;20357;-84
2021/04/22 11:18:55;;;;;;;0.60;0.60;;;19.30;99.90;;;;;;20639953;28;20786;-76
2021/04/22 11:29:13;;;;;;;10.33;3.37;;;19.00;99.90;;;;;;20621381;28;20224;-80
2021/04/22 11:39:37;;;;;;;0.47;0.47;;;18.80;99.90;;;;;;20622648;28;20219;-81
2021/04/22 11:49:41;;;;;;;0.43;0.43;;;19.90;99.90;;;;;;20618039;28;20230;-78
2021/04/22 11:59:44;;;;;;;2.77;0.40;;;20.00;99.90;;;;;;20625576;28;20611;-83
2021/04/22 12:09:49;;;;;;;0.77;0.47;;;21.30;99.90;;;;;;20622461;28;20230;-85
2021/04/22 12:19:53;;;;;;;0.50;0.50;;;22.40;99.90;;;;;;20622791;28;20451;-83
2021/04/22 12:30:18;;;;;;;0.20;0.20;;;22.60;99.90;;;;;;20619269;28;20207;-77
2021/04/22 12:40:21;;;;;;;1.33;0.50;;;22.60;99.90;;;;;;20618232;28;20277;-80
2021/04/22 12:50:35;;;;;;;0.53;0.53;;;23.40;99.90;;;;;;20630760;28;20603;-76
2021/04/22 13:00:44;;;;;;;0.30;0.20;;;23.50;99.90;;;;;;20616166;28;20781;-76
2021/04/22 13:10:51;;;;;;;0.20;0.20;;;22.10;99.90;;;;;;20612815;28;20265;-79
2021/04/22 13:20:55;;;;;;;0.20;0.20;;;23.50;99.90;;;;;;20615122;28;20206;-83
2021/04/22 13:30:59;;;;;;;0.30;0.20;;;22.50;99.90;;;;;;20648442;28;20549;-84
2021/04/22 13:41:10;;;;;;;0.40;0.37;;;22.40;99.90;;;;;;20614820;28;20277;-86
2021/04/22 13:51:15;;;;;;;0.80;0.80;;;21.40;99.90;;;;;;20647600;28;20223;-87
2021/04/22 14:01:22;;;;;;;0.80;0.37;;;22.10;99.90;;;;;;20634474;28;20322;-77
2021/04/22 14:11:25;;;;;;;19.70;0.97;;;22.40;99.90;;;;;;20628976;28;20231;-87
2021/04/22 14:21:29;;;;;;;0.30;0.30;;;22.50;99.90;;;;;;20632660;28;20269;-83
2021/04/22 14:31:33;;;;;;;1.13;0.95;;;23.90;99.90;;;;;;20644634;28;20233;-82
2021/04/22 14:41:39;;;;;;;1.05;0.73;;;24.80;99.90;;;;;;20610505;28;20203;-77
2021/04/22 14:51:43;;;;;;;0.82;0.82;;;24.80;99.90;;;;;;20624259;28;20251;-84
2021/04/22 15:01:46;;;;;;;2.20;0.43;;;24.30;99.90;;;;;;20622011;28;20775;-80
2021/04/22 15:11:50;;;;;;;0.83;0.77;;;21.60;99.90;;;;;;20626319;28;20318;-85
2021/04/22 15:21:55;;;;;;;2.63;0.77;;;21.70;99.90;;;;;;20607817;28;20728;-78
2021/04/22 15:32:00;;;;;;;1.17;0.73;;;22.60;99.90;;;;;;20618926;28;20227;-75
2021/04/22 15:42:09;;;;;;;1.97;1.83;;;22.70;99.90;;;;;;20635686;28;20314;-84
2021/04/22 15:52:16;;;;;;;0.23;0.17;;;21.80;99.90;;;;;;20623431;23;20247;-76
2021/04/22 16:02:27;;;;;;;0.20;0.10;;;20.70;99.90;;;;;;20624496;28;20215;-79
2021/04/22 16:12:32;;;;;;;0.30;0.30;;;19.70;99.90;;;;;;20615772;28;20247;-75
2021/04/22 16:22:35;;;;;;;0.27;0.27;;;19.00;99.90;;;;;;20610652;28;20622;-74
2021/04/22 16:32:39;;;;;;;0.80;0.30;;;19.00;99.90;;;;;;20630344;28;20991;-77
2021/04/22 16:42:44;;;;;;;0.37;0.30;;;19.00;99.90;;;;;;20627808;28;20250;-76
2021/04/22 16:52:52;;;;;;;0.50;0.20;;;18.80;99.90;;;;;;20610321;28;20242;-80
2021/04/22 17:02:58;;;;;;;1.17;0.93;;;18.00;99.90;;;;;;20592072;28;20199;-74
2021/04/22 17:13:11;;;;;;;1.07;1.00;;;17.80;99.90;;;;;;20623515;28;20296;-77
2021/04/22 17:23:14;;;;;;;0.20;0.10;;;19.50;99.90;;;;;;20611411;28;20211;-76
2021/04/22 17:33:18;;;;;;;4.27;1.23;;;20.20;99.90;;;;;;20608220;28;20218;-80
2021/04/22 17:43:30;;;;;;;13.23;1.80;;;20.20;99.90;;;;;;20609843;28;20207;-74
2021/04/22 17:53:34;;;;;;;1.13;0.30;;;19.40;99.90;;;;;;20608278;28;20258;-74
2021/04/22 18:03:37;;;;;;;0.47;0.47;;;17.70;99.90;;;;;;20568611;28;20193;-73
2021/04/22 18:13:45;;;;;;;0.63;0.63;;;16.90;99.90;;;;;;20539109;28;20575;-74
2021/04/22 18:23:48;;;;;;;0.43;0.43;;;16.00;99.90;;;;;;20610891;28;20195;-72
2021/04/22 18:33:52;;;;;;;2.10;1.20;;;15.90;99.90;;;;;;20620045;28;20227;-74
2021/04/22 18:43:55;;;;;;;0.63;0.63;;;15.90;99.90;;;;;;20617796;28;20298;-74
2021/04/22 18:54:01;;;;;;;0.93;0.43;;;15.30;99.90;;;;;;20619510;28;20231;-75
2021/04/22 19:04:05;;;;;;;1.93;1.47;;;15.50;99.90;;;;;;20615593;28;20322;-73
2021/04/22 19:14:08;;;;;;;0.33;0.30;;;15.50;99.90;;;;;;20618151;28;20640;-72
2021/04/22 19:24:11;;;;;;;0.43;0.43;;;15.20;99.90;;;;;;20613809;28;20692;-74
2021/04/22 19:34:16;;;;;;;1.50;1.27;;;15.00;99.90;;;;;;20614053;28;20223;-73
2021/04/22 19:44:19;;;;;;;2.00;1.53;;;14.90;99.90;;;;;;20612905;28;20195;-72
2021/04/22 19:54:23;;;;;;;0.87;0.77;;;14.60;99.90;;;;;;20615949;28;20235;-74
2021/04/22 20:04:26;;;;;;;0.23;0.20;;;13.90;99.90;;;;;;20612646;28;20199;-73
2021/04/22 20:14:32;;;;;;;0.50;0.40;;;13.60;99.90;;;;;;20615126;28;20231;-72
2021/04/22 20:24:38;;;;;;;0.33;0.30;;;13.30;99.90;;;;;;20611339;28;20201;-76
2021/04/22 20:34:43;;;;;;;0.30;0.20;;;13.10;99.90;;;;;;20608669;28;20568;-78
2021/04/22 20:44:55;;;;;;;1.10;0.77;;;12.80;99.90;;;;;;20610809;28;20207;-80
2021/04/22 20:54:59;;;;;;;0.20;0.10;;;12.80;99.90;;;;;;20612099;28;20242;-79
2021/04/22 21:05:03;;;;;;;0.33;0.33;;;12.70;99.90;;;;;;20612443;28;20207;-76
2021/04/22 21:15:12;;;;;;;2.50;1.23;;;12.70;99.90;;;;;;20609503;28;20219;-77
2021/04/22 21:25:18;;;;;;;0.23;0.23;;;12.60;99.90;;;;;;20611640;28;20544;-76
2021/04/22 21:35:27;;;;;;;0.20;0.10;;;12.70;99.90;;;;;;20610199;28;20293;-76
2021/04/22 21:45:39;;;;;;;4.77;1.90;;;12.70;99.90;;;;;;20598148;28;20218;-76
2021/04/22 21:55:43;;;;;;;0.20;0.10;;;12.60;99.90;;;;;;20627119;28;20230;-75
2021/04/22 22:05:46;;;;;;;0.20;0.20;;;12.60;99.90;;;;;;20625839;28;20242;-75
2021/04/22 22:15:55;;;;;;;0.20;0.20;;;12.40;99.90;;;;;;20625273;28;20223;-76
2021/04/22 22:25:58;;;;;;;0.30;0.30;;;12.30;99.90;;;;;;20624957;28;20200;-77
2021/04/22 22:36:04;;;;;;;0.70;0.70;;;12.50;99.90;;;;;;20621916;28;20235;-75
2021/04/22 22:46:07;;;;;;;0.43;0.43;;;12.50;99.90;;;;;;20622203;28;20678;-77
2021/04/22 22:56:11;;;;;;;0.40;0.40;;;12.60;99.90;;;;;;20620079;28;20238;-77
2021/04/22 23:06:13;;;;;;;0.57;0.57;;;12.60;99.90;;;;;;20620835;28;20204;-76
2021/04/22 23:16:17;;;;;;;0.40;0.33;;;12.70;99.90;;;;;;20618935;28;20249;-77
2021/04/22 23:26:23;;;;;;;0.50;0.50;;;12.80;99.90;;;;;;20620023;28;20199;-76
2021/04/22 23:36:28;;;;;;;0.33;0.30;;;12.90;99.90;;;;;;20598825;28;20308;-77
2021/04/22 23:46:38;;;;;;;1.13;0.73;;;12.90;99.90;;;;;;20619045;28;20342;-74
2021/04/22 23:56:45;;;;;;;1.07;0.47;;;12.80;99.90;;;;;;20615642;28;20688;-75
